Time;durP1;ratioP1;P1;durP2;ratioP2;P2;SDS_P1;SDS_P2;PMS_P1;PMS_P2;Temp;Humidity;BMP_temperature;BMP_pressure;BME280_temperature;BME280_humidity;BME280_pressure;Samples;Min_cycle;Max_cycle;Signal;HPM_P1;HPM_P2
2023/10/03 00:01:28;;;;;;;12.30;6.32;;;17.00;84.10;;;;;;5052365;28;20141;-82
2023/10/03 00:04:13;;;;;;;11.32;5.60;;;17.00;84.30;;;;;;5051362;28;20384;-83
2023/10/03 00:06:46;;;;;;;9.25;5.53;;;16.90;85.00;;;;;;5054203;28;20048;-83
2023/10/03 00:09:14;;;;;;;9.20;5.70;;;16.90;85.50;;;;;;5069450;28;20062;-81
2023/10/03 00:11:45;;;;;;;16.30;5.88;;;17.00;85.20;;;;;;5056372;28;20113;-81
2023/10/03 00:14:28;;;;;;;13.35;6.45;;;17.10;85.10;;;;;;5083678;28;20040;-83
2023/10/03 00:16:58;;;;;;;10.93;6.30;;;17.10;85.40;;;;;;5049191;28;20048;-82
2023/10/03 00:19:29;;;;;;;10.93;5.55;;;17.10;85.00;;;;;;5054830;28;20044;-79
2023/10/03 00:21:58;;;;;;;18.57;6.23;;;16.90;85.20;;;;;;5036904;28;20048;-82
2023/10/03 00:24:29;;;;;;;10.68;5.38;;;16.90;85.90;;;;;;5055720;28;20285;-81
2023/10/03 00:26:59;;;;;;;13.68;5.30;;;16.80;86.50;;;;;;5063038;28;20048;-81
2023/10/03 00:29:29;;;;;;;17.05;6.70;;;16.70;86.90;;;;;;5072889;28;20051;-82
2023/10/03 00:32:01;;;;;;;10.90;5.55;;;16.70;87.30;;;;;;5085302;28;20067;-81
2023/10/03 00:34:36;;;;;;;13.95;6.10;;;16.80;87.50;;;;;;5065739;28;20048;-81
2023/10/03 00:37:06;;;;;;;11.13;5.78;;;16.90;86.70;;;;;;5047693;28;20041;-81
2023/10/03 00:39:38;;;;;;;20.02;6.72;;;16.70;87.80;;;;;;5047659;28;20032;-81
2023/10/03 00:42:09;;;;;;;12.23;6.13;;;16.70;87.70;;;;;;5045216;28;20484;-80
2023/10/03 00:44:39;;;;;;;;;;;16.70;87.60;;;;;;5042931;28;20066;-82
2023/10/03 00:47:07;;;;;;;11.90;5.75;;;16.60;88.30;;;;;;5052673;28;19923;-82
2023/10/03 00:49:38;;;;;;;13.95;6.13;;;16.80;87.90;;;;;;5051268;28;20091;-81
2023/10/03 00:52:09;;;;;;;12.35;5.75;;;16.40;89.10;;;;;;5068007;28;20502;-80
2023/10/03 00:54:51;;;;;;;10.75;5.80;;;16.30;90.20;;;;;;5054805;28;20032;-81
2023/10/03 00:57:22;;;;;;;13.20;5.72;;;16.40;90.20;;;;;;5034821;28;20067;-83
2023/10/03 00:59:50;;;;;;;15.18;6.60;;;16.60;90.30;;;;;;5031804;28;20124;-81
2023/10/03 01:02:21;;;;;;;15.75;6.50;;;16.70;90.30;;;;;;5069375;28;20131;-81
2023/10/03 01:04:49;;;;;;;11.52;5.60;;;16.70;90.10;;;;;;5055793;28;20039;-83
2023/10/03 01:07:17;;;;;;;10.68;6.45;;;16.70;89.80;;;;;;5048097;28;20048;-79
2023/10/03 01:09:45;;;;;;;13.82;5.97;;;16.60;90.00;;;;;;5055532;28;20036;-80
2023/10/03 01:12:16;;;;;;;16.90;5.60;;;16.60;90.20;;;;;;5064954;28;20418;-80
2023/10/03 01:14:46;;;;;;;12.52;5.85;;;16.70;90.20;;;;;;5068936;28;20036;-80
2023/10/03 01:17:15;;;;;;;13.73;5.75;;;16.50;90.40;;;;;;5029602;28;20557;-80
2023/10/03 01:19:44;;;;;;;14.30;6.03;;;16.50;90.20;;;;;;5047911;28;20122;-81
2023/10/03 01:22:13;;;;;;;14.52;5.90;;;16.60;90.10;;;;;;5060484;28;20163;-81
2023/10/03 01:24:41;;;;;;;13.60;6.32;;;16.40;90.30;;;;;;5051979;28;20529;-81
2023/10/03 01:27:23;;;;;;;10.45;5.15;;;16.20;91.00;;;;;;5069878;28;20044;-81
2023/10/03 01:29:53;;;;;;;13.13;6.05;;;16.20;91.10;;;;;;5064441;28;20113;-83
2023/10/03 01:32:25;;;;;;;11.75;5.43;;;16.30;91.00;;;;;;5055153;28;20036;-81
2023/10/03 01:34:57;;;;;;;11.75;5.85;;;16.40;90.70;;;;;;5055457;28;20036;-82
2023/10/03 01:37:27;;;;;;;12.30;6.25;;;16.30;91.10;;;;;;5055950;28;20040;-82
2023/10/03 01:39:55;;;;;;;14.57;5.60;;;16.30;91.20;;;;;;5065486;28;20492;-82
2023/10/03 01:42:22;;;;;;;14.40;6.97;;;16.20;91.50;;;;;;5024985;28;20447;-82
2023/10/03 01:44:52;;;;;;;14.25;6.07;;;16.40;91.80;;;;;;5066788;28;20056;-80
2023/10/03 01:47:21;;;;;;;19.92;6.43;;;16.30;91.60;;;;;;5052960;28;20044;-80
2023/10/03 01:49:51;;;;;;;10.77;6.68;;;16.00;92.50;;;;;;5051110;28;20052;-83
2023/10/03 01:52:19;;;;;;;10.85;5.55;;;16.20;92.50;;;;;;5036964;28;20131;-81
2023/10/03 01:54:46;;;;;;;10.82;5.55;;;16.20;92.30;;;;;;5055014;28;20036;-79
2023/10/03 01:57:14;;;;;;;11.35;5.80;;;16.20;92.60;;;;;;5051484;28;20495;-80
2023/10/03 01:59:42;;;;;;;10.27;5.93;;;16.00;92.90;;;;;;5065684;28;20036;-79
2023/10/03 02:02:09;;;;;;;9.27;5.43;;;16.10;93.00;;;;;;5052287;28;20035;-78
2023/10/03 02:04:36;;;;;;;10.80;5.80;;;16.10;93.00;;;;;;5075630;28;20112;-79
2023/10/03 02:07:05;;;;;;;12.85;5.78;;;16.10;93.40;;;;;;5051614;28;20042;-81
2023/10/03 02:09:33;;;;;;;11.57;6.07;;;16.10;93.10;;;;;;5047474;28;20515;-81
2023/10/03 02:12:01;;;;;;;12.07;6.28;;;16.10;93.20;;;;;;5068057;28;20040;-80
2023/10/03 02:14:30;;;;;;;11.48;5.90;;;16.20;93.20;;;;;;5056883;28;20415;-80
2023/10/03 02:16:58;;;;;;;14.40;6.53;;;16.20;93.20;;;;;;5051595;28;20071;-81
2023/10/03 02:19:26;;;;;;;12.10;6.07;;;16.20;93.40;;;;;;5071475;28;20048;-81
2023/10/03 02:21:59;;;;;;;12.27;6.10;;;16.20;93.80;;;;;;5067534;28;20044;-80
2023/10/03 02:24:26;;;;;;;13.50;6.30;;;16.30;93.70;;;;;;5052262;28;20438;-80
2023/10/03 02:26:54;;;;;;;9.38;5.15;;;16.30;93.70;;;;;;5047667;28;20810;-81
2023/10/03 02:29:21;;;;;;;9.30;5.28;;;16.00;93.80;;;;;;5052988;28;20123;-80
2023/10/03 02:31:49;;;;;;;11.23;5.60;;;15.80;94.50;;;;;;5074836;28;20048;-80
2023/10/03 02:34:19;;;;;;;10.93;5.63;;;15.90;94.70;;;;;;5058351;28;20036;-81
2023/10/03 02:36:48;;;;;;;10.70;5.82;;;15.90;94.90;;;;;;5054134;28;20044;-79
2023/10/03 02:39:24;;;;;;;12.98;6.05;;;15.90;94.90;;;;;;5045205;28;20070;-81
2023/10/03 02:41:54;;;;;;;11.52;5.70;;;15.60;95.20;;;;;;5050228;28;20440;-79
2023/10/03 02:44:23;;;;;;;;;;;15.40;95.90;;;;;;5073866;28;20514;-80
2023/10/03 02:46:51;;;;;;;13.82;6.13;;;15.40;96.40;;;;;;5054617;28;20568;-79
2023/10/03 02:49:18;;;;;;;13.75;5.95;;;15.50;96.40;;;;;;5058048;28;20072;-80
2023/10/03 02:51:46;;;;;;;16.67;5.90;;;15.70;96.20;;;;;;5057994;28;20044;-81
2023/10/03 02:54:13;;;;;;;17.60;6.28;;;15.80;95.70;;;;;;5057847;28;20376;-83
2023/10/03 02:56:46;;;;;;;11.00;6.27;;;15.70;95.80;;;;;;5056645;28;20513;-82
2023/10/03 02:59:28;;;;;;;11.68;6.25;;;15.60;95.70;;;;;;5058968;28;20071;-80
2023/10/03 03:01:56;;;;;;;12.85;6.60;;;15.50;96.40;;;;;;5057411;28;20101;-81
2023/10/03 03:04:24;;;;;;;11.63;6.22;;;15.50;96.40;;;;;;5051115;28;20408;-81
2023/10/03 03:06:52;;;;;;;12.63;6.25;;;15.30;96.80;;;;;;5051320;28;20044;-84
2023/10/03 03:09:23;;;;;;;9.25;5.72;;;15.40;97.00;;;;;;5064761;28;20115;-82
2023/10/03 03:11:51;;;;;;;10.13;6.00;;;15.30;97.00;;;;;;5035599;28;20086;-79
2023/10/03 03:14:19;;;;;;;11.93;6.32;;;15.40;97.10;;;;;;5050085;28;20403;-83
2023/10/03 03:16:48;;;;;;;13.85;6.95;;;15.30;97.10;;;;;;5050776;28;20529;-81
2023/10/03 03:19:17;;;;;;;12.63;6.47;;;15.20;97.40;;;;;;5092438;28;20384;-83
2023/10/03 03:21:52;;;;;;;11.68;5.80;;;15.10;97.30;;;;;;5054132;28;20040;-85
2023/10/03 03:24:33;;;;;;;10.13;6.30;;;15.10;97.80;;;;;;5065017;28;20044;-82
2023/10/03 03:27:23;;;;;;;10.88;6.38;;;15.10;97.80;;;;;;5047596;28;20131;-82
2023/10/03 03:30:34;;;;;;;12.90;6.65;;;15.20;97.20;;;;;;5054847;28;20078;-83
2023/10/03 03:32:50;;;;;;;14.18;6.65;;;15.20;97.30;;;;;;5060557;28;20547;-81
2023/10/03 03:35:18;;;;;;;15.02;6.78;;;15.00;97.50;;;;;;5056602;28;20515;-81
2023/10/03 03:37:47;;;;;;;12.63;6.80;;;15.00;97.60;;;;;;5068675;28;20048;-80
2023/10/03 03:40:33;;;;;;;12.57;6.55;;;14.90;97.60;;;;;;5047714;28;20056;-83
2023/10/03 03:43:06;;;;;;;11.93;6.35;;;14.90;97.80;;;;;;5052546;28;20574;-83
2023/10/03 03:45:49;;;;;;;11.07;6.32;;;14.90;97.80;;;;;;5034020;28;20033;-82
2023/10/03 03:48:34;;;;;;;12.25;6.35;;;14.90;98.20;;;;;;5067848;28;20112;-78
2023/10/03 03:51:07;;;;;;;12.50;6.13;;;14.80;98.30;;;;;;5057332;28;20438;-81
2023/10/03 03:53:34;;;;;;;10.70;6.55;;;14.80;98.50;;;;;;5055774;28;20438;-80
2023/10/03 03:56:07;;;;;;;12.20;5.90;;;14.90;98.20;;;;;;5058391;28;20040;-84
2023/10/03 03:58:37;;;;;;;12.75;6.28;;;14.90;98.20;;;;;;5074756;28;20507;-82
2023/10/03 04:01:20;;;;;;;12.00;6.60;;;14.80;98.50;;;;;;5061688;28;20080;-84
2023/10/03 04:03:53;;;;;;;15.27;6.43;;;14.90;98.70;;;;;;5044387;28;20441;-79
2023/10/03 04:06:21;;;;;;;10.68;6.30;;;14.90;98.50;;;;;;5057605;28;20036;-79
2023/10/03 04:08:50;;;;;;;10.38;6.50;;;14.90;98.50;;;;;;5057193;28;20499;-79
2023/10/03 04:11:36;;;;;;;13.07;6.07;;;14.90;98.60;;;;;;5046790;28;20055;-83
2023/10/03 04:14:07;;;;;;;11.30;6.43;;;14.90;98.40;;;;;;5056611;28;20036;-82
2023/10/03 04:17:08;;;;;;;11.00;5.78;;;14.80;98.80;;;;;;5089655;28;20052;-81
2023/10/03 04:19:45;;;;;;;12.02;5.53;;;14.50;99.80;;;;;;5074444;28;20043;-84
2023/10/03 04:22:13;;;;;;;11.25;5.70;;;14.50;99.90;;;;;;5055759;28;20048;-81
2023/10/03 04:25:01;;;;;;;10.98;5.90;;;14.40;99.90;;;;;;5058840;28;20035;-79
2023/10/03 04:27:32;;;;;;;9.73;5.55;;;14.50;99.90;;;;;;5037298;28;20052;-81
2023/10/03 04:30:03;;;;;;;10.60;5.78;;;14.30;99.90;;;;;;5055986;28;20378;-81
2023/10/03 04:32:32;;;;;;;9.23;6.13;;;14.50;99.90;;;;;;5070726;28;20551;-82
2023/10/03 04:35:11;;;;;;;14.10;6.10;;;14.50;99.90;;;;;;5040475;28;20484;-81
2023/10/03 04:37:43;;;;;;;8.30;5.10;;;14.40;99.90;;;;;;5072967;28;20079;-80
2023/10/03 04:40:37;;;;;;;14.52;5.72;;;14.40;99.90;;;;;;5052505;28;20056;-80
2023/10/03 04:43:14;;;;;;;8.25;5.38;;;14.20;99.90;;;;;;5053769;28;20051;-78
2023/10/03 04:45:43;;;;;;;11.88;5.78;;;14.40;99.90;;;;;;5052845;28;20081;-81
2023/10/03 04:48:32;;;;;;;10.02;5.97;;;14.30;99.90;;;;;;5055713;28;20499;-81
2023/10/03 04:51:00;;;;;;;9.02;5.78;;;14.20;99.90;;;;;;5069372;28;20127;-81
2023/10/03 04:53:28;;;;;;;10.57;6.10;;;14.30;99.90;;;;;;5067210;28;20046;-81
2023/10/03 04:56:00;;;;;;;11.45;6.35;;;14.00;99.90;;;;;;5072393;28;20036;-82
2023/10/03 04:58:55;;;;;;;10.50;6.30;;;14.10;99.90;;;;;;5039894;28;20101;-83
2023/10/03 05:02:32;;;;;;;24.45;13.50;;;14.30;99.90;;;;;;5078481;28;20059;-81
2023/10/03 05:05:18;;;;;;;42.15;26.58;;;14.40;99.90;;;;;;5040171;28;20101;-86
2023/10/03 05:08:12;;;;;;;39.72;22.63;;;14.60;99.90;;;;;;5042417;28;20040;-81
2023/10/03 05:11:06;;;;;;;45.25;25.40;;;14.70;99.90;;;;;;5055876;28;20043;-81
2023/10/03 05:13:58;;;;;;;38.50;24.10;;;14.50;99.90;;;;;;5070743;28;20040;-83
2023/10/03 05:16:54;;;;;;;76.93;45.17;;;14.60;99.90;;;;;;5043037;28;20040;-83
2023/10/03 05:20:34;;;;;;;40.22;21.20;;;14.70;99.90;;;;;;5073249;28;20395;-85
2023/10/03 05:23:19;;;;;;;19.33;11.88;;;14.70;99.90;;;;;;5068575;28;20856;-83
2023/10/03 05:26:07;;;;;;;28.77;13.13;;;14.80;99.90;;;;;;5084464;28;20040;-83
2023/10/03 05:28:55;;;;;;;18.70;9.93;;;14.90;99.90;;;;;;5067436;28;20123;-81
2023/10/03 05:32:08;;;;;;;22.25;11.85;;;15.10;99.90;;;;;;5040890;28;20063;-81
2023/10/03 05:35:13;;;;;;;23.00;10.82;;;15.10;99.90;;;;;;5086963;28;20055;-80
2023/10/03 05:37:43;;;;;;;17.20;11.00;;;15.20;99.90;;;;;;5051979;28;20051;-83
2023/10/03 05:40:52;;;;;;;19.65;9.68;;;15.40;99.90;;;;;;5056751;28;20044;-80
2023/10/03 05:44:21;;;;;;;17.42;9.80;;;15.50;99.90;;;;;;5057686;28;20047;-82
2023/10/03 05:48:53;;;;;;;58.50;32.55;;;15.60;99.90;;;;;;5071748;28;20056;-84
2023/10/03 05:51:59;;;;;;;21.70;13.35;;;15.80;99.90;;;;;;5082638;28;20232;-80
2023/10/03 05:54:41;;;;;;;23.92;12.15;;;15.70;99.20;;;;;;5084672;28;20048;-80
2023/10/03 05:57:09;;;;;;;16.75;9.18;;;15.30;99.90;;;;;;5052095;28;20043;-79
2023/10/03 05:59:37;;;;;;;24.15;7.80;;;15.00;99.90;;;;;;5053405;28;20068;-84
2023/10/03 06:02:09;;;;;;;;;;;14.20;99.90;;;;;;5066682;28;20036;-79
2023/10/03 06:04:38;;;;;;;16.13;6.63;;;14.60;99.90;;;;;;5061072;28;19928;-82
2023/10/03 06:07:15;;;;;;;16.73;7.15;;;14.50;99.90;;;;;;5070935;28;20125;-82
2023/10/03 06:10:04;;;;;;;14.52;7.05;;;14.50;99.90;;;;;;5081307;28;20109;-81
2023/10/03 06:12:33;;;;;;;16.50;7.28;;;15.00;99.90;;;;;;5067854;28;20071;-82
2023/10/03 06:15:04;;;;;;;14.80;6.93;;;15.70;99.90;;;;;;5053591;28;20131;-80
2023/10/03 06:17:42;;;;;;;12.73;6.60;;;16.10;99.90;;;;;;5079833;28;20277;-80
2023/10/03 06:20:14;;;;;;;11.35;6.70;;;16.20;99.20;;;;;;5084588;28;20061;-80
2023/10/03 06:22:44;;;;;;;12.93;6.63;;;15.80;99.70;;;;;;5065247;28;20414;-81
2023/10/03 06:25:12;;;;;;;13.63;7.10;;;16.00;99.50;;;;;;5066848;28;20039;-80
2023/10/03 06:27:50;;;;;;;12.85;6.30;;;16.00;99.30;;;;;;5068882;28;20088;-80
2023/10/03 06:30:18;;;;;;;15.05;6.38;;;15.90;99.40;;;;;;5065776;28;20066;-81
2023/10/03 06:32:47;;;;;;;13.35;6.63;;;15.70;99.90;;;;;;5065568;28;20647;-81
2023/10/03 06:35:17;;;;;;;12.05;6.68;;;15.90;99.60;;;;;;5082870;28;20043;-81
2023/10/03 06:38:03;;;;;;;15.40;6.72;;;15.80;99.70;;;;;;5068550;28;20055;-83
2023/10/03 06:40:34;;;;;;;14.30;7.28;;;15.80;99.90;;;;;;5100998;28;20052;-83
2023/10/03 06:43:17;;;;;;;14.77;6.97;;;16.00;99.50;;;;;;5050511;28;20039;-82
2023/10/03 06:45:45;;;;;;;14.88;6.97;;;16.20;99.00;;;;;;5071719;28;20055;-81
2023/10/03 06:48:16;;;;;;;11.55;6.40;;;16.50;98.70;;;;;;5082154;28;20468;-82
2023/10/03 06:50:47;;;;;;;17.52;6.72;;;16.90;97.80;;;;;;5080348;28;20395;-81
2023/10/03 06:53:18;;;;;;;17.80;7.18;;;16.90;97.20;;;;;;5058736;28;20538;-82
2023/10/03 06:55:49;;;;;;;17.25;7.13;;;17.00;97.10;;;;;;5058561;28;20040;-78
2023/10/03 06:58:17;;;;;;;25.77;7.90;;;17.10;96.60;;;;;;5073808;28;20350;-83
2023/10/03 07:00:44;;;;;;;14.45;7.10;;;17.10;96.80;;;;;;5047707;28;20095;-83
2023/10/03 07:03:16;;;;;;;15.75;7.45;;;17.20;96.70;;;;;;5057642;28;20163;-84
2023/10/03 07:05:49;;;;;;;17.42;6.93;;;17.30;96.40;;;;;;5041193;28;20495;-81
2023/10/03 07:08:21;;;;;;;22.17;7.45;;;17.30;96.20;;;;;;5066736;28;20406;-81
2023/10/03 07:10:52;;;;;;;13.15;6.53;;;17.30;96.30;;;;;;5070733;28;20476;-81
2023/10/03 07:13:29;;;;;;;11.60;6.82;;;17.30;96.40;;;;;;5056657;28;20082;-80
2023/10/03 07:16:11;;;;;;;13.57;6.38;;;17.30;96.20;;;;;;5053095;28;20101;-83
2023/10/03 07:18:45;;;;;;;19.90;11.65;;;17.50;95.90;;;;;;5058217;28;20110;-81
2023/10/03 07:21:15;;;;;;;;;;;17.70;96.30;;;;;;5057794;28;20047;-80
2023/10/03 07:24:01;;;;;;;15.50;7.28;;;18.10;95.30;;;;;;5072109;28;20000;-83
2023/10/03 07:26:28;;;;;;;13.98;6.35;;;18.00;95.00;;;;;;5057759;28;20058;-82
2023/10/03 07:29:01;;;;;;;15.73;7.28;;;18.00;95.00;;;;;;5081824;28;20060;-84
2023/10/03 07:31:33;;;;;;;15.25;6.95;;;17.80;95.00;;;;;;5051592;28;20106;-79
2023/10/03 07:34:01;;;;;;;14.95;6.15;;;17.90;95.20;;;;;;5072444;28;20053;-81
2023/10/03 07:36:29;;;;;;;13.75;6.95;;;18.20;94.60;;;;;;5083816;28;20127;-79
2023/10/03 07:38:56;;;;;;;19.20;6.38;;;18.10;94.40;;;;;;5079049;28;20408;-82
2023/10/03 07:41:23;;;;;;;11.65;7.30;;;18.10;94.60;;;;;;5065323;28;20039;-83
2023/10/03 07:43:52;;;;;;;15.75;6.57;;;18.10;94.70;;;;;;5062116;28;20127;-81
2023/10/03 07:46:25;;;;;;;13.10;6.10;;;18.40;94.10;;;;;;5081584;28;20085;-80
2023/10/03 07:48:53;;;;;;;15.20;7.15;;;18.60;93.70;;;;;;5083873;28;20115;-82
2023/10/03 07:51:26;;;;;;;13.82;6.95;;;18.60;93.60;;;;;;5067702;28;20079;-79
2023/10/03 07:53:55;;;;;;;12.85;6.47;;;18.70;93.30;;;;;;5063188;28;20066;-79
2023/10/03 07:56:25;;;;;;;13.70;6.35;;;18.90;92.90;;;;;;5068677;28;20032;-80
2023/10/03 07:58:54;;;;;;;9.63;6.32;;;19.00;92.90;;;;;;5064340;28;20067;-81
2023/10/03 08:01:24;;;;;;;14.98;7.30;;;19.10;92.70;;;;;;5063636;28;20076;-78
2023/10/03 08:03:53;;;;;;;12.98;6.30;;;19.20;92.70;;;;;;5068234;28;20040;-79
2023/10/03 08:06:23;;;;;;;16.30;7.40;;;19.40;92.20;;;;;;5086309;28;20032;-79
2023/10/03 08:08:52;;;;;;;13.23;6.82;;;19.40;92.00;;;;;;5085592;28;20032;-79
2023/10/03 08:11:28;;;;;;;15.07;7.15;;;19.20;92.10;;;;;;5065636;28;20064;-81
2023/10/03 08:14:21;;;;;;;13.63;6.13;;;19.40;92.30;;;;;;5081476;28;20155;-80
2023/10/03 08:16:48;;;;;;;10.30;6.32;;;19.70;91.80;;;;;;5045716;28;20074;-80
2023/10/03 08:19:25;;;;;;;14.50;6.30;;;19.50;91.20;;;;;;5068706;28;20365;-82
2023/10/03 08:21:53;;;;;;;13.52;6.30;;;19.40;91.60;;;;;;5055303;28;20052;-83
2023/10/03 08:24:25;;;;;;;14.13;6.47;;;19.50;91.20;;;;;;5087994;28;20119;-82
2023/10/03 08:26:53;;;;;;;11.93;5.93;;;19.60;91.80;;;;;;5061763;28;20051;-85
2023/10/03 08:29:21;;;;;;;15.93;6.68;;;19.90;91.00;;;;;;5082094;28;20036;-85
2023/10/03 08:31:59;;;;;;;14.45;5.95;;;19.70;90.70;;;;;;5089827;28;20246;-83
2023/10/03 08:34:28;;;;;;;13.55;6.15;;;20.00;90.70;;;;;;5057169;28;20040;-81
2023/10/03 08:36:59;;;;;;;13.77;6.97;;;20.20;90.00;;;;;;5063714;28;20131;-86
2023/10/03 08:39:34;;;;;;;10.70;6.22;;;20.20;90.30;;;;;;5055072;28;20043;-85
2023/10/03 08:42:34;;;;;;;14.30;6.07;;;20.00;89.70;;;;;;5056425;28;20048;-85
2023/10/03 08:45:16;;;;;;;14.63;5.85;;;20.10;89.70;;;;;;5069815;28;20071;-87
2023/10/03 08:48:08;;;;;;;13.93;5.88;;;20.50;88.70;;;;;;5058770;28;20040;-91
2023/10/03 08:51:02;;;;;;;12.90;5.88;;;20.50;88.20;;;;;;5074972;28;20397;-88
2023/10/03 08:54:13;;;;;;;14.07;5.50;;;20.80;87.90;;;;;;5059627;28;20048;-86
2023/10/03 08:57:47;;;;;;;12.05;6.10;;;21.10;86.70;;;;;;5050978;28;20097;-87
2023/10/03 09:00:41;;;;;;;17.40;6.05;;;20.90;87.30;;;;;;5055339;28;20045;-86
2023/10/03 09:03:51;;;;;;;13.43;5.97;;;21.10;86.40;;;;;;5063760;28;20075;-83
2023/10/03 09:07:00;;;;;;;12.20;5.93;;;21.50;85.80;;;;;;5067059;28;20047;-90
2023/10/03 09:09:45;;;;;;;11.95;5.68;;;21.70;84.00;;;;;;5058304;28;20060;-89
2023/10/03 09:13:07;;;;;;;9.82;5.03;;;21.60;83.40;;;;;;5070456;28;20054;-88
2023/10/03 09:16:39;;;;;;;11.93;5.00;;;21.50;83.80;;;;;;5066715;28;20102;-81
2023/10/03 09:24:43;;;;;;;12.95;5.63;;;21.90;81.50;;;;;;5048065;28;20049;-82
2023/10/03 09:28:55;;;;;;;9.57;4.28;;;21.80;81.60;;;;;;5067153;28;20036;-84
2023/10/03 09:31:57;;;;;;;9.00;4.85;;;21.70;79.50;;;;;;5056131;28;20024;-85
2023/10/03 09:34:56;;;;;;;11.02;4.72;;;21.80;81.00;;;;;;5060686;28;20028;-82
2023/10/03 09:37:32;;;;;;;11.25;4.72;;;21.90;81.20;;;;;;5040247;28;20063;-84
2023/10/03 09:40:28;;;;;;;10.60;4.72;;;22.10;79.60;;;;;;5066083;28;20055;-83
2023/10/03 09:43:27;;;;;;;9.38;5.22;;;22.60;79.70;;;;;;5047161;28;20048;-84
2023/10/03 09:46:15;;;;;;;11.27;5.10;;;22.60;78.70;;;;;;5044129;28;20032;-83
2023/10/03 09:49:08;;;;;;;13.27;4.53;;;22.00;79.50;;;;;;5053230;28;20044;-83
2023/10/03 09:52:08;;;;;;;9.35;4.18;;;22.20;80.10;;;;;;5053119;28;20469;-81
2023/10/03 09:55:02;;;;;;;8.93;4.28;;;22.40;78.90;;;;;;5056463;28;20043;-83
2023/10/03 10:01:55;;;;;;;8.77;4.25;;;22.70;75.80;;;;;;5073946;28;20056;-84
2023/10/03 10:05:59;;;;;;;10.75;4.65;;;22.60;75.20;;;;;;5069434;28;20407;-82
2023/10/03 10:17:49;;;;;;;10.38;4.40;;;23.00;75.10;;;;;;5089640;28;19916;-85
2023/10/03 10:21:37;;;;;;;10.82;4.57;;;23.20;75.10;;;;;;4962967;28;20106;-83
2023/10/03 10:24:27;;;;;;;10.45;4.47;;;23.30;73.60;;;;;;5039897;28;20048;-85
2023/10/03 10:28:00;;;;;;;12.48;4.45;;;23.70;72.60;;;;;;5055188;28;20047;-85
2023/10/03 10:31:42;;;;;;;12.55;4.75;;;23.60;71.40;;;;;;5088238;28;20441;-83
2023/10/03 10:34:40;;;;;;;11.43;4.95;;;23.70;70.80;;;;;;5077186;28;20381;-83
2023/10/03 10:37:54;;;;;;;13.55;5.28;;;24.00;70.30;;;;;;5061362;28;20118;-84
2023/10/03 10:45:17;;;;;;;12.00;4.90;;;24.00;68.30;;;;;;5094856;28;20395;-85
2023/10/03 10:47:49;;;;;;;11.25;4.47;;;23.90;68.40;;;;;;5084529;28;20119;-84
2023/10/03 10:50:25;;;;;;;10.15;5.65;;;23.90;68.10;;;;;;5098371;28;20051;-84
2023/10/03 10:52:57;;;;;;;;;;;24.00;67.90;;;;;;5045300;28;20044;-89
2023/10/03 10:55:56;;;;;;;11.70;4.70;;;24.20;67.90;;;;;;5042847;28;19931;-85
2023/10/03 10:59:07;;;;;;;13.80;5.13;;;24.10;68.10;;;;;;5058245;28;20055;-83
2023/10/03 11:02:28;;;;;;;9.57;4.55;;;25.00;66.90;;;;;;5051820;28;20098;-84
2023/10/03 11:05:55;;;;;;;10.82;4.72;;;25.40;64.90;;;;;;5073167;28;20049;-84
2023/10/03 11:09:25;;;;;;;9.73;4.32;;;25.30;64.60;;;;;;5048438;28;20162;-87
2023/10/03 11:12:41;;;;;;;9.63;4.30;;;25.20;64.20;;;;;;5058693;28;20048;-87
2023/10/03 11:16:56;;;;;;;12.35;4.43;;;25.50;63.60;;;;;;5024209;28;20068;-84
2023/10/03 11:28:52;;;;;;;9.45;4.40;;;27.90;60.80;;;;;;4966086;28;20089;-90
2023/10/03 11:41:27;;;;;;;11.70;5.18;;;32.00;51.90;;;;;;4947378;28;20414;-89
2023/10/03 11:46:04;;;;;;;9.70;4.57;;;29.00;54.70;;;;;;4882024;29;20135;-89
2023/10/03 11:49:39;;;;;;;9.85;4.60;;;27.50;56.80;;;;;;4854364;29;20066;-88
2023/10/03 12:19:11;;;;;;;10.30;4.28;;;26.90;58.10;;;;;;4960375;29;20412;-91
2023/10/03 12:23:49;;;;;;;9.48;4.88;;;26.90;58.00;;;;;;5104805;28;20047;-91
2023/10/03 14:34:45;;;;;;;8.38;4.82;;;37.20;40.40;;;;;;5093585;27;20530;-82
2023/10/03 15:16:47;;;;;;;9.27;4.82;;;34.60;42.80;;;;;;4918948;28;20098;-83
2023/10/03 15:20:44;;;;;;;14.40;5.68;;;34.70;42.60;;;;;;4940605;29;20047;-86
2023/10/03 15:24:17;;;;;;;15.20;5.45;;;34.20;43.10;;;;;;4925976;29;20103;-84
2023/10/03 15:27:13;;;;;;;13.85;5.85;;;33.40;43.10;;;;;;4938822;28;20054;-80
2023/10/03 15:29:42;;;;;;;12.30;6.25;;;33.20;43.70;;;;;;4960403;28;20055;-82
2023/10/03 15:32:25;;;;;;;176.13;140.23;;;32.80;43.90;;;;;;5009490;28;20155;-80
2023/10/03 15:35:35;;;;;;;71.05;56.65;;;32.50;44.90;;;;;;4997496;28;20060;-81
2023/10/03 15:39:08;;;;;;;67.68;54.63;;;31.80;44.80;;;;;;5032635;28;20578;-82
2023/10/03 15:42:50;;;;;;;37.35;31.35;;;31.20;45.90;;;;;;5022111;28;20048;-81
2023/10/03 15:46:00;;;;;;;35.30;26.70;;;30.90;46.60;;;;;;5032090;28;20049;-81
2023/10/03 15:48:28;;;;;;;29.23;21.60;;;29.90;46.80;;;;;;5027982;28;20829;-79
2023/10/03 15:50:56;;;;;;;16.08;9.43;;;29.30;48.10;;;;;;5051041;28;20044;-84
2023/10/03 15:53:23;;;;;;;12.73;7.75;;;28.90;48.80;;;;;;5072199;28;20058;-83
2023/10/03 15:55:51;;;;;;;21.10;7.95;;;28.10;49.20;;;;;;5070382;28;20657;-82
2023/10/03 15:58:18;;;;;;;15.40;8.40;;;27.60;50.30;;;;;;5087612;28;20028;-82
2023/10/03 16:00:47;;;;;;;15.15;9.20;;;26.90;51.90;;;;;;5071805;28;20534;-84
2023/10/03 16:03:46;;;;;;;13.27;7.75;;;26.20;53.40;;;;;;5036062;28;20047;-83
2023/10/03 16:07:31;;;;;;;18.52;8.23;;;25.70;53.80;;;;;;5073172;28;20040;-82
2023/10/03 16:10:30;;;;;;;15.05;9.57;;;25.20;55.00;;;;;;5069720;28;20051;-80
2023/10/03 16:13:02;;;;;;;15.13;7.78;;;24.80;54.80;;;;;;5049094;28;20056;-82
2023/10/03 16:16:10;;;;;;;16.92;8.75;;;24.60;55.10;;;;;;5084503;28;20057;-79
2023/10/03 16:18:53;;;;;;;15.77;9.13;;;24.40;55.50;;;;;;5041635;28;20044;-80
2023/10/03 16:21:52;;;;;;;19.02;10.30;;;24.20;56.00;;;;;;5057034;28;20060;-83
2023/10/03 16:29:13;;;;;;;20.10;9.68;;;24.00;57.90;;;;;;5088421;28;20063;-81
2023/10/03 16:33:37;;;;;;;27.00;10.75;;;23.70;58.40;;;;;;5088392;28;20101;-81
2023/10/03 16:36:45;;;;;;;28.25;9.93;;;23.80;59.40;;;;;;5015554;28;20044;-82
2023/10/03 16:39:41;;;;;;;20.08;10.30;;;23.60;59.20;;;;;;5021944;28;20068;-81
2023/10/03 16:42:08;;;;;;;24.17;10.02;;;23.60;59.40;;;;;;5015745;28;20580;-82
2023/10/03 16:44:36;;;;;;;18.45;8.88;;;23.60;59.50;;;;;;5016638;28;20049;-83
2023/10/03 16:47:04;;;;;;;13.40;7.43;;;23.60;58.80;;;;;;4995245;28;20050;-83
2023/10/03 16:49:31;;;;;;;20.33;6.55;;;23.60;58.50;;;;;;5010765;28;20136;-82
2023/10/03 16:51:59;;;;;;;17.55;8.60;;;23.50;58.50;;;;;;5031998;28;20132;-80
2023/10/03 16:54:26;;;;;;;16.98;7.88;;;23.40;58.80;;;;;;5009882;28;20052;-80
2023/10/03 16:57:27;;;;;;;17.10;8.93;;;23.30;59.30;;;;;;5004478;28;20041;-81
2023/10/03 17:00:17;;;;;;;20.73;9.38;;;23.00;61.00;;;;;;5014302;28;20049;-81
2023/10/03 17:03:34;;;;;;;23.75;8.07;;;22.80;61.90;;;;;;4965546;28;20690;-84
2023/10/03 17:06:37;;;;;;;21.48;8.93;;;22.70;62.50;;;;;;4991919;28;20072;-81
2023/10/03 17:09:23;;;;;;;19.15;9.05;;;22.70;62.50;;;;;;5015242;28;20045;-79
2023/10/03 17:12:28;;;;;;;20.45;9.82;;;22.50;62.80;;;;;;5025301;28;20093;-79
2023/10/03 17:15:26;;;;;;;24.90;12.95;;;22.40;63.90;;;;;;5059127;28;20680;-82
2023/10/03 17:18:19;;;;;;;19.25;9.60;;;22.20;63.70;;;;;;5027139;28;20048;-81
2023/10/03 17:21:01;;;;;;;22.33;9.95;;;22.30;64.80;;;;;;5035731;28;20068;-82
2023/10/03 17:27:08;;;;;;;32.33;16.02;;;22.10;66.00;;;;;;5018314;28;20037;-81
2023/10/03 17:30:15;;;;;;;23.90;12.40;;;22.20;65.90;;;;;;5039414;28;20381;-81
2023/10/03 17:33:56;;;;;;;27.45;12.00;;;22.10;65.60;;;;;;5046164;28;20159;-80
2023/10/03 17:36:53;;;;;;;31.83;12.55;;;22.00;65.70;;;;;;5015963;28;20140;-80
2023/10/03 17:40:27;;;;;;;24.80;11.50;;;21.90;66.10;;;;;;5036834;28;20041;-80
2023/10/03 17:43:20;;;;;;;22.75;11.85;;;21.60;65.50;;;;;;5018656;28;20059;-83
2023/10/03 17:46:08;;;;;;;21.75;12.63;;;20.70;65.50;;;;;;5024348;28;20083;-81
2023/10/03 17:48:49;;;;;;;115.60;70.35;;;20.70;65.40;;;;;;5041994;28;20071;-79
2023/10/03 17:52:18;;;;;;;97.53;58.25;;;21.10;66.10;;;;;;5015490;28;20157;-82
2023/10/03 17:55:41;;;;;;;31.70;21.20;;;21.40;66.00;;;;;;5052550;28;20532;-83
2023/10/03 17:58:16;;;;;;;27.70;16.20;;;21.40;64.90;;;;;;5013797;28;20041;-77
2023/10/03 18:00:50;;;;;;;23.67;13.30;;;21.40;66.20;;;;;;5058913;28;20044;-79
2023/10/03 18:03:36;;;;;;;21.25;12.48;;;21.40;66.90;;;;;;5063097;28;20499;-80
2023/10/03 18:06:24;;;;;;;23.85;13.73;;;21.30;66.40;;;;;;5066117;28;20040;-77
2023/10/03 18:08:55;;;;;;;20.73;11.13;;;21.20;67.00;;;;;;5041468;28;20102;-79
2023/10/03 18:11:29;;;;;;;30.83;13.90;;;21.20;67.20;;;;;;5041679;28;20419;-81